Time;durP1;ratioP1;P1;durP2;ratioP2;P2;SDS_P1;SDS_P2;PMS_P1;PMS_P2;Temp;Humidity;BMP_temperature;BMP_pressure;BME280_temperature;BME280_humidity;BME280_pressure;Samples;Min_cycle;Max_cycle;Signal;HPM_P1;HPM_P2
2022/06/22 00:00:50;;;;;;;;;;;;;;;22.78;53.06;99201.28;1088281;54;19927;-80
2022/06/22 00:01:55;;;;;;;;;;;;;;;22.79;52.36;99211.09;1088294;54;19950;-81
2022/06/22 00:02:59;;;;;;;;;;;;;;;22.80;52.59;99199.13;1088105;54;19927;-83
2022/06/22 00:04:01;;;;;;;;;;;;;;;22.80;52.37;99193.69;1088272;54;19942;-81
2022/06/22 00:05:07;;;;;;;;;;;;;;;22.80;52.53;99199.13;1090881;47;19938;-80
2022/06/22 00:06:16;;;;;;;;;;;;;;;22.80;52.80;99209.22;1088198;54;19943;-82
2022/06/22 00:07:23;;;;;;;;;;;;;;;22.78;52.68;99195.84;1088022;54;20740;-80
2022/06/22 00:08:27;;;;;;;;;;;;;;;22.80;52.67;99196.41;1088018;54;19938;-81
2022/06/22 00:09:32;;;;;;;;;;;;;;;22.82;52.54;99193.44;1087836;54;19934;-82
2022/06/22 00:10:37;;;;;;;;;;;;;;;22.80;52.75;99188.25;1087788;54;19930;-82
2022/06/22 00:11:45;;;;;;;;;;;;;;;22.82;52.73;99187.97;1088100;54;19923;-82
2022/06/22 00:12:47;;;;;;;;;;;;;;;22.81;52.55;99187.19;1088252;54;19943;-81
2022/06/22 00:13:52;;;;;;;;;;;;;;;22.80;52.79;99182.78;1088284;54;19942;-81
2022/06/22 00:14:57;;;;;;;;;;;;;;;22.79;52.87;99180.31;1088240;54;19941;-83
2022/06/22 00:16:03;;;;;;;;;;;;;;;22.74;53.06;99186.50;1088117;54;19975;-82
2022/06/22 00:17:04;;;;;;;;;;;;;;;22.73;52.67;99182.13;1088211;54;19958;-83
2022/06/22 00:18:22;;;;;;;;;;;;;;;22.73;52.69;99176.69;1095131;31;20785;-82
2022/06/22 00:19:27;;;;;;;;;;;;;;;22.72;52.83;99173.13;1090542;47;19942;-81
2022/06/22 00:20:32;;;;;;;;;;;;;;;22.71;52.93;99173.38;1088190;54;19954;-81
2022/06/22 00:21:35;;;;;;;;;;;;;;;22.69;52.90;99173.63;1096942;39;20446;-81
2022/06/22 00:22:48;;;;;;;;;;;;;;;22.70;52.66;99174.44;1088214;54;20523;-81
2022/06/22 00:23:51;;;;;;;;;;;;;;;22.62;52.98;99181.16;1090958;47;19994;-81
2022/06/22 00:24:58;;;;;;;;;;;;;;;22.56;53.04;99177.50;1088191;54;19934;-82
2022/06/22 00:26:07;;;;;;;;;;;;;;;22.49;53.37;99184.97;1088046;54;19949;-81
2022/06/22 00:27:20;;;;;;;;;;;;;;;22.38;53.72;99180.41;1087836;54;19939;-81
2022/06/22 00:28:26;;;;;;;;;;;;;;;22.33;53.92;99181.13;1087755;54;19943;-81
2022/06/22 00:29:35;;;;;;;;;;;;;;;22.24;54.46;99185.31;1088206;54;19942;-83
2022/06/22 00:30:44;;;;;;;;;;;;;;;22.18;54.34;99180.81;1088209;54;19950;-81
2022/06/22 00:32:00;;;;;;;;;;;;;;;22.19;54.09;99183.31;1088107;54;19942;-81
2022/06/22 00:33:11;;;;;;;;;;;;;;;22.17;54.14;99188.16;1088214;54;19967;-82
2022/06/22 00:34:17;;;;;;;;;;;;;;;22.14;54.00;99180.47;1088269;54;19927;-82
2022/06/22 00:35:33;;;;;;;;;;;;;;;22.08;54.28;99184.19;1088212;54;19943;-82
2022/06/22 00:36:39;;;;;;;;;;;;;;;22.04;54.12;99178.41;1088144;54;19926;-81
2022/06/22 00:37:40;;;;;;;;;;;;;;;22.05;54.06;99184.66;1088176;54;19931;-82
2022/06/22 00:38:44;;;;;;;;;;;;;;;22.07;54.00;99185.25;1088100;54;19943;-81
2022/06/22 00:39:46;;;;;;;;;;;;;;;22.07;53.75;99180.63;1088175;54;19931;-83
2022/06/22 00:40:51;;;;;;;;;;;;;;;22.07;53.95;99186.06;1088179;54;19934;-81
2022/06/22 00:41:55;;;;;;;;;;;;;;;22.05;53.98;99185.50;1088122;54;19943;-83
2022/06/22 00:42:59;;;;;;;;;;;;;;;22.02;53.60;99185.13;1088195;54;19935;-83
2022/06/22 00:44:05;;;;;;;;;;;;;;;22.02;53.69;99191.41;1087885;54;19942;-82
2022/06/22 00:45:10;;;;;;;;;;;;;;;22.03;53.45;99190.34;1087764;54;19949;-81
2022/06/22 00:46:22;;;;;;;;;;;;;;;22.01;53.76;99195.19;1087725;54;19941;-82
2022/06/22 00:47:29;;;;;;;;;;;;;;;22.03;53.69;99200.38;1088191;54;19927;-81
2022/06/22 00:48:32;;;;;;;;;;;;;;;21.95;53.86;99204.31;1088071;54;19967;-83
2022/06/22 00:49:37;;;;;;;;;;;;;;;21.85;53.94;99204.13;1088149;54;19946;-81
2022/06/22 00:50:39;;;;;;;;;;;;;;;21.79;54.13;99206.72;1088142;54;19947;-82
2022/06/22 00:51:43;;;;;;;;;;;;;;;21.71;54.11;99204.34;1088086;47;20792;-81
2022/06/22 00:52:49;;;;;;;;;;;;;;;21.65;54.28;99211.56;1088154;54;19950;-80
2022/06/22 00:53:54;;;;;;;;;;;;;;;21.65;54.18;99208.03;1088031;54;19973;-81
2022/06/22 00:54:58;;;;;;;;;;;;;;;21.64;54.26;99204.47;1088121;54;19927;-81
2022/06/22 00:56:05;;;;;;;;;;;;;;;21.68;53.90;99199.38;1087895;54;20591;-82
2022/06/22 00:57:11;;;;;;;;;;;;;;;21.71;53.77;99208.97;1087819;54;19998;-80
2022/06/22 00:58:15;;;;;;;;;;;;;;;21.73;53.70;99198.66;1087697;54;19943;-81
2022/06/22 00:59:23;;;;;;;;;;;;;;;21.73;53.70;99198.66;1087734;54;19966;-81
2022/06/22 01:00:28;;;;;;;;;;;;;;;21.73;53.62;99202.22;1087705;54;19943;-82
2022/06/22 01:01:40;;;;;;;;;;;;;;;21.76;53.42;99192.75;1087820;54;19943;-82
2022/06/22 01:02:48;;;;;;;;;;;;;;;21.80;53.21;99193.94;1087664;54;19950;-81
2022/06/22 01:03:54;;;;;;;;;;;;;;;21.85;53.19;99187.78;1087715;54;19950;-82
2022/06/22 01:05:00;;;;;;;;;;;;;;;21.86;53.29;99179.38;1087687;54;19989;-83
2022/06/22 01:06:06;;;;;;;;;;;;;;;21.90;53.10;99177.00;1087632;54;20602;-83
2022/06/22 01:07:13;;;;;;;;;;;;;;;21.91;53.18;99176.78;1087652;54;19950;-82
2022/06/22 01:08:19;;;;;;;;;;;;;;;21.89;53.42;99178.91;1087131;54;19943;-82
2022/06/22 01:09:29;;;;;;;;;;;;;;;21.83;53.44;99171.69;1087736;54;19942;-81
2022/06/22 01:10:35;;;;;;;;;;;;;;;21.72;53.56;99167.94;1089633;39;20921;-83
2022/06/22 01:13:00;;;;;;;;;;;;;;;21.61;54.15;99155.19;1087746;54;20629;-82
2022/06/22 01:14:05;;;;;;;;;;;;;;;21.56;54.53;99158.59;1087703;54;19967;-80
2022/06/22 01:15:15;;;;;;;;;;;;;;;21.50;54.41;99160.38;1088236;47;19981;-84
2022/06/22 01:16:19;;;;;;;;;;;;;;;21.45;54.50;99162.16;1088322;46;20878;-83
2022/06/22 01:17:28;;;;;;;;;;;;;;;21.45;54.64;99164.88;1088085;54;19942;-83
2022/06/22 01:18:34;;;;;;;;;;;;;;;21.53;54.11;99169.97;1088373;54;19950;-83
2022/06/22 01:19:44;;;;;;;;;;;;;;;21.57;53.97;99170.31;1088461;54;20037;-83
2022/06/22 01:20:53;;;;;;;;;;;;;;;21.59;53.81;99169.03;1088490;54;19934;-80
2022/06/22 01:22:11;;;;;;;;;;;;;;;21.62;53.75;99178.59;1089196;31;20567;-81
2022/06/22 01:23:30;;;;;;;;;;;;;;;21.66;53.34;99186.03;1088378;54;19987;-82
2022/06/22 01:24:34;;;;;;;;;;;;;;;21.69;53.13;99189.34;1088369;54;19943;-81
2022/06/22 01:25:46;;;;;;;;;;;;;;;21.71;52.96;99192.66;1088435;54;19942;-80
2022/06/22 01:26:52;;;;;;;;;;;;;;;21.72;52.88;99195.13;1088393;54;19950;-80
2022/06/22 01:28:00;;;;;;;;;;;;;;;21.73;53.08;99198.66;1088418;54;20520;-81
2022/06/22 01:29:05;;;;;;;;;;;;;;;21.67;52.86;99200.47;1088484;54;19998;-83
2022/06/22 01:30:21;;;;;;;;;;;;;;;21.61;52.16;99194.09;1088446;54;19983;-82
2022/06/22 01:31:22;;;;;;;;;;;;;;;21.59;52.54;99196.22;1088385;54;19967;-80
2022/06/22 01:32:29;;;;;;;;;;;;;;;21.57;52.59;99201.03;1088437;54;19943;-82
2022/06/22 01:33:33;;;;;;;;;;;;;;;21.51;52.47;99188.41;1088026;54;19958;-82
2022/06/22 01:34:38;;;;;;;;;;;;;;;21.58;52.67;99185.56;1088008;54;19964;-81
2022/06/22 01:35:39;;;;;;;;;;;;;;;21.53;51.85;99182.72;1088217;54;19950;-79
2022/06/22 01:36:43;;;;;;;;;;;;;;;21.46;51.23;99175.53;1088440;54;19949;-82
2022/06/22 01:37:45;;;;;;;;;;;;;;;21.43;51.43;99173.25;1088460;54;20654;-82
2022/06/22 01:38:49;;;;;;;;;;;;;;;21.32;51.39;99166.78;1088458;54;19934;-81
2022/06/22 01:39:51;;;;;;;;;;;;;;;21.25;51.38;99174.25;1088440;54;19927;-82
2022/06/22 01:41:00;;;;;;;;;;;;;;;21.17;51.46;99169.13;1088390;54;20035;-80
2022/06/22 01:42:05;;;;;;;;;;;;;;;21.19;52.03;99169.72;1093423;39;20841;-82
2022/06/22 01:43:18;;;;;;;;;;;;;;;21.25;51.85;99163.38;1088456;54;19927;-82
2022/06/22 01:44:22;;;;;;;;;;;;;;;21.28;52.17;99154.72;1088430;54;19950;-81
2022/06/22 01:45:31;;;;;;;;;;;;;;;21.33;52.47;99156.72;1089370;39;20436;-78
2022/06/22 01:46:36;;;;;;;;;;;;;;;21.34;52.61;99155.66;1088412;54;19942;-79
2022/06/22 01:47:44;;;;;;;;;;;;;;;21.40;51.99;99159.31;1088432;54;20002;-81
2022/06/22 01:48:48;;;;;;;;;;;;;;;21.44;51.79;99166.75;1088461;54;19950;-79
2022/06/22 01:49:57;;;;;;;;;;;;;;;21.48;51.70;99167.97;1091490;46;19979;-81
2022/06/22 01:51:01;;;;;;;;;;;;;;;21.51;51.63;99172.09;1088064;54;19942;-81
2022/06/22 01:52:13;;;;;;;;;;;;;;;21.56;51.43;99174.91;1087920;54;19942;-81
2022/06/22 01:53:20;;;;;;;;;;;;;;;21.58;51.30;99175.53;1088123;54;19943;-79
2022/06/22 01:54:23;;;;;;;;;;;;;;;21.55;50.89;99173.25;1088434;54;19966;-80
2022/06/22 01:55:33;;;;;;;;;;;;;;;21.55;50.72;99178.69;1091430;39;20542;-80
2022/06/22 01:56:39;;;;;;;;;;;;;;;21.56;50.66;99179.53;1088394;54;19969;-80
2022/06/22 01:57:47;;;;;;;;;;;;;;;21.58;50.50;99188.28;1088468;54;19942;-80
2022/06/22 01:58:53;;;;;;;;;;;;;;;21.59;50.54;99185.34;1088431;54;19938;-80
2022/06/22 02:00:01;;;;;;;;;;;;;;;21.59;49.84;99185.34;1088412;54;19999;-81
2022/06/22 02:01:06;;;;;;;;;;;;;;;21.61;49.84;99183.22;1088429;54;19938;-81
2022/06/22 02:02:13;;;;;;;;;;;;;;;21.59;49.66;99177.19;1088390;54;19927;-80
2022/06/22 02:03:17;;;;;;;;;;;;;;;21.61;49.56;99177.78;1088428;54;19943;-80
2022/06/22 02:04:24;;;;;;;;;;;;;;;21.61;49.23;99177.78;1088411;54;19943;-80
2022/06/22 02:05:27;;;;;;;;;;;;;;;21.62;49.25;99181.31;1089863;39;20149;-78
2022/06/22 02:07:56;;;;;;;;;;;;;;;21.64;49.41;99182.72;1088422;54;19942;-79
2022/06/22 02:08:59;;;;;;;;;;;;;;;21.58;49.14;99178.25;1087562;54;19998;-77
2022/06/22 02:10:05;;;;;;;;;;;;;;;21.56;48.94;99185.78;1088062;54;19942;-81
2022/06/22 02:11:12;;;;;;;;;;;;;;;21.58;49.22;99194.56;1088220;54;19943;-80
2022/06/22 02:12:20;;;;;;;;;;;;;;;21.60;49.44;99199.75;1088334;54;19942;-82
2022/06/22 02:13:28;;;;;;;;;;;;;;;21.59;49.07;99204.38;1088423;54;19950;-80
2022/06/22 02:14:32;;;;;;;;;;;;;;;21.59;49.09;99206.25;1088413;54;19954;-81
2022/06/22 02:15:47;;;;;;;;;;;;;;;21.56;49.30;99210.25;1090693;46;19983;-80
2022/06/22 02:16:52;;;;;;;;;;;;;;;21.55;49.18;99210.50;1088358;54;20634;-79
2022/06/22 02:17:56;;;;;;;;;;;;;;;21.54;48.92;99206.94;1088389;54;19954;-80
2022/06/22 02:19:12;;;;;;;;;;;;;;;21.49;49.09;99213.09;1088443;54;19930;-80
2022/06/22 02:20:28;;;;;;;;;;;;;;;21.49;48.75;99212.28;1088439;54;19953;-79
2022/06/22 02:21:38;;;;;;;;;;;;;;;21.51;49.04;99221.03;1093553;39;20039;-79
2022/06/22 02:22:41;;;;;;;;;;;;;;;21.51;48.73;99223.75;1088205;54;19947;-79
2022/06/22 02:23:47;;;;;;;;;;;;;;;21.49;48.92;99223.97;1088246;54;19934;-80
2022/06/22 02:24:49;;;;;;;;;;;;;;;21.51;48.67;99230.00;1088301;54;19978;-79
2022/06/22 02:25:56;;;;;;;;;;;;;;;21.48;48.65;99244.09;1090149;46;19933;-82
2022/06/22 02:26:59;;;;;;;;;;;;;;;21.50;48.41;99246.56;1088551;46;19942;-82
2022/06/22 02:28:03;;;;;;;;;;;;;;;21.39;48.14;99250.09;1088037;54;20012;-79
2022/06/22 02:29:04;;;;;;;;;;;;;;;21.30;48.44;99252.34;1090452;46;19927;-80
2022/06/22 02:30:11;;;;;;;;;;;;;;;21.19;48.76;99254.81;1088359;54;19943;-83
2022/06/22 02:31:13;;;;;;;;;;;;;;;21.14;48.42;99253.84;1088301;54;19927;-79
2022/06/22 02:32:18;;;;;;;;;;;;;;;21.23;48.41;99254.31;1088272;54;19942;-80
2022/06/22 02:33:20;;;;;;;;;;;;;;;21.32;48.42;99250.19;1088175;54;19942;-79
2022/06/22 02:34:23;;;;;;;;;;;;;;;21.33;48.31;99247.25;1088256;54;19972;-80
2022/06/22 02:35:25;;;;;;;;;;;;;;;21.30;48.10;99242.28;1087984;54;19930;-82
2022/06/22 02:36:31;;;;;;;;;;;;;;;21.35;48.21;99241.59;1087709;54;19942;-80
2022/06/22 02:37:34;;;;;;;;;;;;;;;21.40;47.83;99240.88;1087743;54;19943;-80
2022/06/22 02:38:39;;;;;;;;;;;;;;;21.41;47.65;99237.09;1087998;54;19938;-80
2022/06/22 02:39:43;;;;;;;;;;;;;;;21.43;47.77;99234.97;1088240;54;19939;-79
2022/06/22 02:44:44;;;;;;;;;;;;;;;21.41;47.10;99212.63;1087659;54;19968;-80
2022/06/22 02:45:48;;;;;;;;;;;;;;;21.42;47.57;99211.56;1087675;54;19992;-80
2022/06/22 02:46:52;;;;;;;;;;;;;;;21.39;47.05;99207.44;1087552;54;20023;-79
2022/06/22 02:47:55;;;;;;;;;;;;;;;21.32;47.32;99195.84;1087954;54;19927;-78
2022/06/22 02:49:01;;;;;;;;;;;;;;;21.15;47.68;99185.69;1088123;54;19943;-81
2022/06/22 02:50:06;;;;;;;;;;;;;;;21.06;48.33;99187.09;1088051;54;19949;-80
2022/06/22 02:51:14;;;;;;;;;;;;;;;20.98;48.50;99179.28;1087847;54;19938;-80
2022/06/22 02:52:19;;;;;;;;;;;;;;;20.90;49.17;99164.16;1088042;54;19943;-81
2022/06/22 02:53:23;;;;;;;;;;;;;;;20.93;49.15;99162.84;1096726;39;20698;-80
2022/06/22 02:54:30;;;;;;;;;;;;;;;20.96;49.02;99159.66;1093057;39;20266;-81
2022/06/22 02:55:33;;;;;;;;;;;;;;;21.00;49.16;99169.84;1088186;54;19974;-80
2022/06/22 02:56:40;;;;;;;;;;;;;;;21.01;49.80;99174.22;1090729;46;19942;-83
2022/06/22 02:57:46;;;;;;;;;;;;;;;21.08;49.13;99178.69;1087933;54;20716;-80
2022/06/22 02:58:50;;;;;;;;;;;;;;;21.12;49.31;99172.56;1090251;46;19938;-82
2022/06/22 02:59:51;;;;;;;;;;;;;;;21.12;49.72;99167.13;1089552;46;19947;-80
2022/06/22 03:00:57;;;;;;;;;;;;;;;21.12;49.62;99161.69;1088204;54;19949;-81
2022/06/22 03:01:59;;;;;;;;;;;;;;;21.11;50.92;99160.03;1090995;46;20022;-81
2022/06/22 03:03:06;;;;;;;;;;;;;;;21.09;52.25;99158.63;1087980;54;19943;-81
2022/06/22 03:04:08;;;;;;;;;;;;;;;21.10;51.33;99155.69;1087952;54;19943;-81
2022/06/22 03:05:13;;;;;;;;;;;;;;;21.07;53.09;99144.44;1087920;54;19927;-81
2022/06/22 03:06:16;;;;;;;;;;;;;;;21.03;52.33;99149.50;1088831;39;20892;-82
2022/06/22 03:07:20;;;;;;;;;;;;;;;20.95;54.33;99152.59;1087853;54;19949;-81
2022/06/22 03:08:22;;;;;;;;;;;;;;;20.94;54.09;99151.78;1088780;39;20699;-81
2022/06/22 03:09:28;;;;;;;;;;;;;;;20.87;54.82;99146.44;1087651;54;19954;-82
2022/06/22 03:10:31;;;;;;;;;;;;;;;20.91;54.40;99154.13;1087876;54;19943;-83
2022/06/22 03:11:36;;;;;;;;;;;;;;;20.95;54.26;99147.16;1087898;54;19942;-83
2022/06/22 03:12:38;;;;;;;;;;;;;;;20.88;55.65;99152.69;1087855;54;20011;-81
2022/06/22 03:13:44;;;;;;;;;;;;;;;20.87;55.35;99154.59;1087875;54;20654;-82
2022/06/22 03:14:50;;;;;;;;;;;;;;;20.91;54.63;99154.94;1087895;54;19955;-81
2022/06/22 03:15:54;;;;;;;;;;;;;;;20.95;54.73;99158.00;1087909;54;20074;-79
2022/06/22 03:17:00;;;;;;;;;;;;;;;20.91;55.10;99163.09;1087844;54;19950;-80
2022/06/22 03:18:04;;;;;;;;;;;;;;;20.89;55.06;99159.78;1089839;39;20988;-81
2022/06/22 03:19:09;;;;;;;;;;;;;;;20.92;54.54;99148.44;1087942;54;19942;-79
2022/06/22 03:20:16;;;;;;;;;;;;;;;20.89;54.77;99154.34;1088237;54;19931;-79
2022/06/22 03:21:18;;;;;;;;;;;;;;;20.93;54.96;99152.81;1088315;54;19950;-82
2022/06/22 03:22:24;;;;;;;;;;;;;;;20.96;54.40;99160.53;1088248;54;19942;-83
2022/06/22 03:23:28;;;;;;;;;;;;;;;20.99;53.91;99154.59;1088297;54;20006;-80
2022/06/22 03:24:37;;;;;;;;;;;;;;;21.03;53.92;99158.50;1088335;54;19943;-81
2022/06/22 03:25:45;;;;;;;;;;;;;;;21.04;54.01;99156.59;1088314;46;19958;-82
2022/06/22 03:26:49;;;;;;;;;;;;;;;21.02;54.42;99156.84;1088258;54;19931;-82
2022/06/22 03:27:55;;;;;;;;;;;;;;;21.00;54.91;99158.97;1088287;54;19983;-82
2022/06/22 03:29:00;;;;;;;;;;;;;;;20.96;55.73;99165.94;1088298;54;19958;-81
2022/06/22 03:30:08;;;;;;;;;;;;;;;20.94;54.57;99162.63;1088281;54;19954;-82
2022/06/22 03:31:12;;;;;;;;;;;;;;;20.87;56.07;99164.63;1088280;54;19966;-79
2022/06/22 03:32:23;;;;;;;;;;;;;;;20.91;55.89;99170.44;1088244;54;20606;-81
2022/06/22 03:33:27;;;;;;;;;;;;;;;20.94;55.33;99173.50;1088263;54;19969;-81
2022/06/22 03:34:32;;;;;;;;;;;;;;;20.97;55.83;99167.56;1088275;54;19942;-81
2022/06/22 03:35:36;;;;;;;;;;;;;;;20.97;56.42;99177.63;1088095;54;19939;-82
2022/06/22 03:36:43;;;;;;;;;;;;;;;20.92;58.08;99170.19;1087952;54;19938;-81
2022/06/22 03:37:46;;;;;;;;;;;;;;;20.85;58.73;99174.91;1087970;54;19950;-81
2022/06/22 03:38:53;;;;;;;;;;;;;;;20.77;59.51;99178.78;1088373;54;19943;-82
2022/06/22 03:39:57;;;;;;;;;;;;;;;20.73;60.08;99175.69;1088387;54;19957;-81
2022/06/22 03:41:02;;;;;;;;;;;;;;;20.71;59.79;99179.69;1089648;46;19961;-81
2022/06/22 03:42:07;;;;;;;;;;;;;;;20.69;59.99;99182.63;1089514;46;19946;-82
2022/06/22 03:43:14;;;;;;;;;;;;;;;20.64;59.66;99177.06;1088282;54;19942;-79
2022/06/22 03:44:18;;;;;;;;;;;;;;;20.68;59.26;99181.00;1088274;54;19936;-80
2022/06/22 03:45:25;;;;;;;;;;;;;;;20.62;59.12;99181.91;1089314;46;19971;-81
2022/06/22 03:46:29;;;;;;;;;;;;;;;20.66;58.42;99185.81;1088256;54;19951;-82
2022/06/22 03:47:38;;;;;;;;;;;;;;;20.69;58.35;99185.31;1088274;54;19965;-81
2022/06/22 03:48:42;;;;;;;;;;;;;;;20.72;57.65;99189.50;1088621;46;19958;-81
2022/06/22 03:49:52;;;;;;;;;;;;;;;20.72;57.23;99189.50;1088232;54;19943;-82
2022/06/22 03:50:55;;;;;;;;;;;;;;;20.71;57.16;99191.38;1092231;39;20621;-82
2022/06/22 03:52:02;;;;;;;;;;;;;;;20.72;56.84;99197.63;1088174;54;19943;-82
2022/06/22 03:53:09;;;;;;;;;;;;;;;20.66;55.64;99188.53;1087832;54;19954;-82
2022/06/22 03:54:16;;;;;;;;;;;;;;;20.66;55.79;99191.25;1087839;54;19943;-81
2022/06/22 03:55:18;;;;;;;;;;;;;;;20.64;55.51;99187.94;1092025;39;20562;-83
2022/06/22 03:56:25;;;;;;;;;;;;;;;20.66;55.51;99193.13;1088218;54;19966;-83
2022/06/22 03:57:30;;;;;;;;;;;;;;;20.64;55.41;99187.13;1088236;54;19943;-84
2022/06/22 03:58:34;;;;;;;;;;;;;;;20.68;55.28;99197.28;1088220;54;19967;-83
2022/06/22 03:59:37;;;;;;;;;;;;;;;20.72;55.06;99193.03;1088267;54;20187;-85
2022/06/22 04:00:43;;;;;;;;;;;;;;;20.75;54.97;99190.94;1089861;46;19946;-82
2022/06/22 04:01:45;;;;;;;;;;;;;;;20.78;54.64;99195.91;1089626;46;19939;-81
2022/06/22 04:02:52;;;;;;;;;;;;;;;20.80;54.70;99189.19;1088191;54;19938;-81
2022/06/22 04:03:54;;;;;;;;;;;;;;;20.83;54.42;99194.13;1088191;54;19943;-82
2022/06/22 04:04:59;;;;;;;;;;;;;;;20.86;53.97;99199.09;1089433;39;20598;-83
2022/06/22 04:06:03;;;;;;;;;;;;;;;20.90;53.81;99198.66;1088170;54;20622;-83
2022/06/22 04:07:09;;;;;;;;;;;;;;;20.92;53.86;99200.06;1088105;54;19931;-81
2022/06/22 04:08:15;;;;;;;;;;;;;;;20.89;53.37;99208.66;1088231;54;19994;-80
2022/06/22 04:09:20;;;;;;;;;;;;;;;20.65;53.62;99213.19;1088242;54;19938;-82
2022/06/22 04:10:31;;;;;;;;;;;;;;;20.57;53.66;99217.06;1087455;54;19949;-83
2022/06/22 04:11:38;;;;;;;;;;;;;;;20.56;53.33;99207.25;1087742;54;19965;-80
2022/06/22 04:12:42;;;;;;;;;;;;;;;20.51;53.57;99215.25;1087818;54;19950;-80
2022/06/22 04:13:48;;;;;;;;;;;;;;;20.52;53.45;99216.91;1088125;54;19943;-83
2022/06/22 04:14:53;;;;;;;;;;;;;;;20.63;53.33;99210.69;1088222;54;19926;-81
2022/06/22 04:16:00;;;;;;;;;;;;;;;20.73;53.24;99210.16;1088198;54;19975;-81
2022/06/22 04:17:03;;;;;;;;;;;;;;;20.75;52.90;99212.66;1088178;54;19942;-83
2022/06/22 04:18:15;;;;;;;;;;;;;;;20.81;52.88;99214.44;1088164;54;20871;-82
2022/06/22 04:19:20;;;;;;;;;;;;;;;20.85;52.58;99208.31;1088211;54;19949;-80
2022/06/22 04:20:49;;;;;;;;;;;;;;;20.87;52.65;99213.53;1088200;54;20669;-80
2022/06/22 04:21:50;;;;;;;;;;;;;;;20.75;52.49;99223.53;1088143;54;19947;-82
2022/06/22 04:22:56;;;;;;;;;;;;;;;20.70;52.33;99226.91;1088156;54;19949;-81
2022/06/22 04:24:00;;;;;;;;;;;;;;;20.62;53.01;99233.47;1088189;54;19943;-83
2022/06/22 04:25:07;;;;;;;;;;;;;;;20.51;54.12;99229.66;1088183;54;19983;-82
2022/06/22 04:26:12;;;;;;;;;;;;;;;20.49;55.10;99239.13;1088235;54;19927;-83
2022/06/22 04:27:17;;;;;;;;;;;;;;;20.45;55.86;99240.63;1088132;54;19965;-83
2022/06/22 04:28:19;;;;;;;;;;;;;;;20.53;55.66;99234.84;1087873;54;19938;-81
2022/06/22 04:29:31;;;;;;;;;;;;;;;20.46;56.04;99234.13;1087804;54;19943;-80
2022/06/22 04:30:36;;;;;;;;;;;;;;;20.33;56.32;99249.53;1087866;54;19946;-82
2022/06/22 04:31:41;;;;;;;;;;;;;;;20.24;56.17;99250.91;1088728;46;19950;-81
2022/06/22 04:32:45;;;;;;;;;;;;;;;20.17;55.32;99252.88;1088227;54;19938;-81
2022/06/22 04:33:58;;;;;;;;;;;;;;;20.18;54.73;99263.47;1088153;54;19950;-80
2022/06/22 04:35:01;;;;;;;;;;;;;;;20.04;54.62;99257.38;1088185;54;19949;-83
2022/06/22 04:36:07;;;;;;;;;;;;;;;20.10;54.52;99245.66;1088176;54;19946;-85
2022/06/22 04:37:25;;;;;;;;;;;;;;;20.20;54.49;99249.72;1088236;54;19942;-83
2022/06/22 04:38:31;;;;;;;;;;;;;;;20.18;54.45;99246.38;1088235;54;19938;-83
2022/06/22 04:39:36;;;;;;;;;;;;;;;19.99;54.60;99251.81;1088277;54;19927;-83
2022/06/22 04:40:50;;;;;;;;;;;;;;;19.88;54.94;99249.84;1088211;54;19934;-83
2022/06/22 04:41:52;;;;;;;;;;;;;;;19.79;55.36;99254.69;1088503;47;19938;-82
2022/06/22 04:42:58;;;;;;;;;;;;;;;19.80;55.29;99246.34;1088194;54;20780;-83
2022/06/22 04:44:01;;;;;;;;;;;;;;;19.78;54.96;99250.34;1088263;54;20160;-84
2022/06/22 04:45:07;;;;;;;;;;;;;;;19.83;54.71;99249.69;1088222;54;19954;-84
2022/06/22 04:46:11;;;;;;;;;;;;;;;19.91;54.48;99249.41;1087900;54;19949;-83
2022/06/22 04:47:18;;;;;;;;;;;;;;;20.00;54.12;99248.06;1087770;54;19943;-84
2022/06/22 04:48:21;;;;;;;;;;;;;;;20.12;53.51;99236.47;1087764;54;19942;-83
2022/06/22 04:49:31;;;;;;;;;;;;;;;20.21;53.44;99235.09;1088329;54;19927;-81
2022/06/22 04:50:33;;;;;;;;;;;;;;;20.27;53.23;99239.59;1088606;54;19939;-81
2022/06/22 04:51:39;;;;;;;;;;;;;;;20.26;52.99;99238.75;1088611;54;19939;-85
2022/06/22 04:52:42;;;;;;;;;;;;;;;20.33;52.57;99244.09;1088685;54;19938;-83
2022/06/22 04:53:51;;;;;;;;;;;;;;;20.29;52.78;99247.50;1088650;54;19947;-83
2022/06/22 04:54:53;;;;;;;;;;;;;;;20.29;52.93;99247.50;1088685;54;19966;-84
2022/06/22 04:56:03;;;;;;;;;;;;;;;20.38;52.48;99246.97;1088696;54;19943;-82
2022/06/22 04:57:08;;;;;;;;;;;;;;;20.50;52.33;99246.19;1088614;54;19942;-84
2022/06/22 04:58:22;;;;;;;;;;;;;;;20.58;52.00;99235.84;1088660;54;19931;-83
2022/06/22 04:59:27;;;;;;;;;;;;;;;20.64;51.58;99242.22;1090837;46;19983;-85
2022/06/22 05:00:30;;;;;;;;;;;;;;;20.54;51.39;99234.66;1092639;46;19954;-83
2022/06/22 05:01:45;;;;;;;;;;;;;;;20.61;51.40;99236.44;1088570;54;19943;-85
2022/06/22 05:02:50;;;;;;;;;;;;;;;20.64;51.15;99231.38;1088605;54;19949;-83
2022/06/22 05:03:56;;;;;;;;;;;;;;;20.66;50.82;99223.81;1090622;46;19942;-84
2022/06/22 05:05:02;;;;;;;;;;;;;;;20.70;51.00;99233.16;1088196;54;19934;-83
2022/06/22 05:06:09;;;;;;;;;;;;;;;20.74;50.74;99230.81;1088413;54;19943;-84
2022/06/22 05:07:21;;;;;;;;;;;;;;;20.80;50.77;99229.06;1088702;54;19926;-84
2022/06/22 05:08:28;;;;;;;;;;;;;;;20.76;50.39;99239.56;1088468;54;19943;-84
2022/06/22 05:09:33;;;;;;;;;;;;;;;20.81;50.44;99238.88;1088474;54;19942;-82
2022/06/22 05:10:43;;;;;;;;;;;;;;;20.85;50.31;99238.19;1089392;39;20151;-83
2022/06/22 05:11:45;;;;;;;;;;;;;;;20.84;49.92;99238.44;1088386;54;19947;-84
2022/06/22 05:12:51;;;;;;;;;;;;;;;20.86;49.61;99236.31;1088452;54;19938;-81
2022/06/22 05:13:54;;;;;;;;;;;;;;;20.81;49.62;99236.16;1088010;54;19950;-81
2022/06/22 05:15:03;;;;;;;;;;;;;;;20.75;49.28;99239.81;1088163;54;19942;-84
2022/06/22 05:16:06;;;;;;;;;;;;;;;20.78;49.52;99244.78;1088400;54;19927;-86
2022/06/22 05:17:15;;;;;;;;;;;;;;;20.77;49.78;99249.38;1088388;54;19938;-83
2022/06/22 05:18:18;;;;;;;;;;;;;;;20.81;49.96;99250.59;1088364;54;19969;-82
2022/06/22 05:19:24;;;;;;;;;;;;;;;20.86;49.83;99252.63;1088478;54;19950;-82
2022/06/22 05:20:31;;;;;;;;;;;;;;;20.90;49.73;99252.97;1088399;54;19943;-81
2022/06/22 05:21:37;;;;;;;;;;;;;;;20.91;49.42;99244.59;1088200;54;19927;-82
2022/06/22 05:22:39;;;;;;;;;;;;;;;20.97;49.36;99248.25;1087627;54;19969;-80
2022/06/22 05:23:43;;;;;;;;;;;;;;;20.96;49.20;99246.59;1087692;54;19942;-81
2022/06/22 05:24:45;;;;;;;;;;;;;;;20.94;49.14;99249.56;1088386;54;19947;-83
2022/06/22 05:25:51;;;;;;;;;;;;;;;20.96;49.54;99247.44;1088308;54;19927;-80
2022/06/22 05:26:53;;;;;;;;;;;;;;;20.91;48.84;99247.28;1088328;54;19977;-83
2022/06/22 05:28:01;;;;;;;;;;;;;;;20.91;49.34;99250.00;1088447;54;19923;-84
2022/06/22 05:29:04;;;;;;;;;;;;;;;20.92;49.07;99254.38;1088364;54;20018;-80
2022/06/22 05:30:10;;;;;;;;;;;;;;;20.90;49.17;99251.06;1088432;39;20007;-83
2022/06/22 05:31:13;;;;;;;;;;;;;;;20.87;49.15;99249.66;1091308;39;20134;-81
2022/06/22 05:32:19;;;;;;;;;;;;;;;20.82;48.75;99245.97;1090087;46;19938;-82
2022/06/22 05:33:22;;;;;;;;;;;;;;;20.79;48.83;99257.28;1088520;54;19939;-79
2022/06/22 05:34:28;;;;;;;;;;;;;;;20.80;49.19;99264.38;1088527;54;19958;-81
2022/06/22 05:35:35;;;;;;;;;;;;;;;20.79;48.51;99260.00;1088617;54;19943;-83
2022/06/22 05:36:41;;;;;;;;;;;;;;;20.84;48.52;99249.28;1088592;54;19942;-84
2022/06/22 05:37:45;;;;;;;;;;;;;;;20.86;48.13;99252.63;1088541;54;20503;-81
2022/06/22 05:38:51;;;;;;;;;;;;;;;20.93;48.05;99247.06;1088244;54;19942;-82
2022/06/22 05:39:54;;;;;;;;;;;;;;;20.93;47.66;99258.75;1087590;54;20485;-81
2022/06/22 05:41:04;;;;;;;;;;;;;;;20.94;47.07;99255.00;1087321;54;19957;-80
2022/06/22 05:42:06;;;;;;;;;;;;;;;20.90;46.97;99253.78;1088403;54;19927;-81
2022/06/22 05:43:11;;;;;;;;;;;;;;;20.91;46.84;99255.44;1088357;54;19931;-81
2022/06/22 05:44:15;;;;;;;;;;;;;;;20.88;46.63;99256.75;1088357;54;19942;-83
2022/06/22 05:45:22;;;;;;;;;;;;;;;20.90;46.71;99253.78;1088436;54;19943;-82
2022/06/22 05:46:26;;;;;;;;;;;;;;;20.92;46.70;99251.66;1088292;54;19943;-82
2022/06/22 05:47:29;;;;;;;;;;;;;;;20.92;46.47;99250.84;1093266;31;20508;-81
2022/06/22 05:48:34;;;;;;;;;;;;;;;20.94;46.58;99248.72;1088114;54;20002;-80
2022/06/22 05:49:42;;;;;;;;;;;;;;;20.96;46.78;99247.44;1087767;54;19950;-79
2022/06/22 05:50:51;;;;;;;;;;;;;;;20.96;46.04;99243.88;1087499;54;19947;-80